Greenspond, Canada
Current Conditions -  °F | °C
As of 12:00 PM on Saturday 20 Dec 2014 (Local Time) from CYQX Reporting Station
Overcast Overcast  
Wind Chill: -8°   Ceiling: 2000
Heat Index: -2°   Visibility: 15mi
Dew Point: -4°   Wind: 12mph
Humidity: 86%   Direction: 20°NNE
Pressure: 30.17"   Gusts: 18mph
Location:  49.05°N, 53.58°W
Report Text: CYQX 201500Z 02010G16KT 15SM OVC020 M02/M04 A3017 RMK SC8 SLP224
Loading
Personal Weather Stations






























Interactive Weather Map New forecast layout! Learn more

10-Day Weather Forecast

Advertisements
Track Severe Weather on mobile